createdAt,value
2022-09-24T00:00:09.961Z,89.59
2022-09-24T00:01:26.025Z,89.87
2022-09-24T00:02:30.509Z,89.86
2022-09-24T00:03:35.085Z,89.62
2022-09-24T00:04:39.342Z,89.90
2022-09-24T00:05:43.047Z,89.67
2022-09-24T00:06:49.129Z,89.91
2022-09-24T00:07:53.099Z,89.95
2022-09-24T00:08:58.229Z,89.74
2022-09-24T00:10:02.882Z,89.79
2022-09-24T00:11:08.459Z,89.93
2022-09-24T00:12:13.758Z,90.18
2022-09-24T00:13:19.072Z,90.60
2022-09-24T00:14:23.085Z,90.62
2022-09-24T00:15:26.978Z,90.66
2022-09-24T00:16:34.214Z,90.67
2022-09-24T00:17:37.998Z,90.89
2022-09-24T00:18:42.939Z,90.78
2022-09-24T00:19:46.612Z,91.07
2022-09-24T00:20:50.747Z,90.81
2022-09-24T00:21:54.713Z,91.25
2022-09-24T00:22:58.346Z,91.17
2022-09-24T00:24:09.794Z,91.38
2022-09-24T00:25:32.330Z,91.51
2022-09-24T00:26:52.236Z,91.10
2022-09-24T00:27:56.069Z,91.46
2022-09-24T00:29:00.521Z,91.44
2022-09-24T00:30:04.878Z,91.46
2022-09-24T00:31:08.915Z,91.35
2022-09-24T00:32:13.669Z,91.25
2022-09-24T00:33:17.444Z,91.55
2022-09-24T00:34:22.113Z,91.55
2022-09-24T00:35:26.542Z,91.34
2022-09-24T00:36:30.463Z,91.58
2022-09-24T00:37:34.473Z,91.58
2022-09-24T00:38:38.174Z,91.23
2022-09-24T00:39:42.006Z,91.59
2022-09-24T00:40:45.924Z,91.46
2022-09-24T00:41:49.759Z,91.30
2022-09-24T00:42:53.719Z,91.12
2022-09-24T00:43:58.910Z,91.45
2022-09-24T00:45:04.424Z,91.11
2022-09-24T00:46:29.001Z,91.21
2022-09-24T00:47:41.159Z,91.37
2022-09-24T00:48:47.498Z,91.11
2022-09-24T00:49:52.426Z,91.15
2022-09-24T00:50:56.228Z,91.21
2022-09-24T00:51:59.947Z,91.32
2022-09-24T00:53:15.455Z,91.25
2022-09-24T00:54:27.251Z,91.00
2022-09-24T00:55:36.987Z,90.75
2022-09-24T00:56:45.117Z,90.88
2022-09-24T00:57:56.568Z,91.08
2022-09-24T00:59:03.725Z,91.14
2022-09-24T01:00:08.662Z,91.12
2022-09-24T01:01:13.098Z,90.97
2022-09-24T01:02:16.864Z,90.90
2022-09-24T01:03:25.613Z,90.79
2022-09-24T01:04:29.357Z,90.83
2022-09-24T01:05:34.283Z,90.86
2022-09-24T01:06:38.857Z,90.68
2022-09-24T01:07:42.741Z,90.83
2022-09-24T01:08:47.593Z,90.76
2022-09-24T01:09:51.661Z,90.87
2022-09-24T01:11:38.105Z,90.96
2022-09-24T01:12:59.801Z,90.62
2022-09-24T01:14:34.157Z,90.67
2022-09-24T01:15:52.168Z,90.64
2022-09-24T01:17:29.886Z,90.91
2022-09-24T01:19:01.785Z,90.66
2022-09-24T01:20:29.976Z,90.65
2022-09-24T01:21:43.524Z,90.53
2022-09-24T01:23:15.084Z,90.87
2022-09-24T01:24:41.489Z,90.86
2022-09-24T01:26:23.293Z,91.14
2022-09-24T01:27:48.066Z,91.08
2022-09-24T01:29:12.841Z,91.16
2022-09-24T01:30:17.365Z,91.13
2022-09-24T01:31:34.453Z,91.38
2022-09-24T01:32:57.469Z,91.31
2022-09-24T01:34:06.223Z,91.04
2022-09-24T01:35:45.253Z,91.22
2022-09-24T01:36:52.736Z,91.42
2022-09-24T01:38:07.187Z,91.47
2022-09-24T01:39:14.699Z,91.55
2022-09-24T01:40:22.652Z,91.79
2022-09-24T01:41:27.433Z,91.72
2022-09-24T01:42:33.815Z,91.46
2022-09-24T01:43:38.717Z,91.84
2022-09-24T01:44:44.683Z,91.61
2022-09-24T01:45:49.256Z,92.00
2022-09-24T01:46:54.683Z,91.51
2022-09-24T01:48:01.414Z,91.80
2022-09-24T01:49:07.453Z,91.67
2022-09-24T01:50:17.697Z,91.92
2022-09-24T01:51:38.363Z,91.78
2022-09-24T01:52:58.596Z,91.97
2022-09-24T01:54:16.454Z,92.09
2022-09-24T01:55:27.668Z,92.28
2022-09-24T01:56:41.608Z,92.56
2022-09-24T01:58:02.108Z,92.36
2022-09-24T01:59:33.172Z,92.92
2022-09-24T02:00:44.677Z,92.42
2022-09-24T02:01:56.893Z,92.73
2022-09-24T02:03:15.258Z,92.64
2022-09-24T02:04:22.633Z,92.48
2022-09-24T02:05:41.950Z,92.55
2022-09-24T02:06:56.129Z,92.46
2022-09-24T02:08:15.495Z,92.78
2022-09-24T02:09:44.088Z,92.68
2022-09-24T02:11:04.159Z,92.62
2022-09-24T02:12:29.833Z,92.76
2022-09-24T02:13:46.920Z,92.81
2022-09-24T02:15:06.808Z,92.75
2022-09-24T02:16:16.595Z,92.69
2022-09-24T02:17:24.473Z,92.67
2022-09-24T02:18:37.504Z,92.94
2022-09-24T02:19:43.176Z,92.55
2022-09-24T02:20:49.249Z,92.51
2022-09-24T02:21:55.248Z,92.77
2022-09-24T02:23:00.016Z,92.66
2022-09-24T02:24:12.924Z,92.71
2022-09-24T02:25:30.946Z,92.64
2022-09-24T02:26:34.960Z,92.72
2022-09-24T02:27:39.422Z,92.55
2022-09-24T02:28:43.562Z,92.50
2022-09-24T02:29:48.235Z,92.66
2022-09-24T02:31:03.677Z,92.81
2022-09-24T02:32:13.416Z,92.57
2022-09-24T02:33:37.703Z,92.46
2022-09-24T02:34:56.210Z,92.79
2022-09-24T02:36:00.668Z,92.50
2022-09-24T02:37:17.141Z,92.63
2022-09-24T02:38:21.458Z,92.82
2022-09-24T02:39:26.048Z,92.95
2022-09-24T02:40:30.616Z,92.81
2022-09-24T02:41:36.205Z,93.15
2022-09-24T02:42:42.672Z,93.01
2022-09-24T02:43:47.701Z,93.16
2022-09-24T02:44:52.671Z,92.79
2022-09-24T02:45:56.672Z,93.09
2022-09-24T02:47:01.210Z,92.70
2022-09-24T02:48:05.181Z,93.14
2022-09-24T02:49:13.791Z,93.05
2022-09-24T02:50:18.402Z,92.82
2022-09-24T02:51:22.416Z,93.18
2022-09-24T02:52:26.305Z,92.71
2022-09-24T02:53:31.297Z,92.58
2022-09-24T02:54:35.280Z,92.68
2022-09-24T02:55:39.424Z,92.71
2022-09-24T02:56:43.132Z,92.65
2022-09-24T02:57:47.681Z,92.66
2022-09-24T02:58:51.895Z,92.72
2022-09-24T02:59:55.930Z,93.10
2022-09-24T03:00:59.901Z,93.08
2022-09-24T03:02:03.755Z,92.96
2022-09-24T03:03:07.553Z,92.67
2022-09-24T03:04:11.976Z,92.86
2022-09-24T03:05:18.384Z,92.60
2022-09-24T03:06:22.435Z,92.52
2022-09-24T03:07:26.104Z,92.68
2022-09-24T03:08:31.456Z,92.76
2022-09-24T03:09:35.452Z,92.51
2022-09-24T03:10:39.598Z,92.72
2022-09-24T03:11:43.300Z,92.42
2022-09-24T03:12:46.983Z,92.58
2022-09-24T03:13:52.376Z,92.48
2022-09-24T03:14:56.374Z,92.47
2022-09-24T03:16:00.376Z,92.33
2022-09-24T03:17:04.567Z,92.41
2022-09-24T03:18:08.469Z,92.47
2022-09-24T03:19:12.311Z,92.44
2022-09-24T03:20:16.207Z,92.22
2022-09-24T03:21:22.707Z,92.80
2022-09-24T03:22:26.535Z,92.58
2022-09-24T03:23:31.104Z,92.49
2022-09-24T03:24:34.896Z,92.31
2022-09-24T03:25:39.135Z,92.14
2022-09-24T03:26:43.060Z,92.36
2022-09-24T03:27:47.778Z,92.46
2022-09-24T03:28:51.643Z,92.35
2022-09-24T03:30:13.836Z,92.21
2022-09-24T03:31:18.028Z,92.38
2022-09-24T03:32:21.936Z,92.07
2022-09-24T03:33:36.225Z,92.28
2022-09-24T03:34:39.896Z,92.14
2022-09-24T03:35:43.625Z,92.07
2022-09-24T03:36:47.451Z,92.21
2022-09-24T03:37:51.291Z,92.25
2022-09-24T03:38:58.094Z,92.33
2022-09-24T03:40:02.608Z,92.24
2022-09-24T03:41:08.418Z,92.13
2022-09-24T03:42:12.932Z,91.96
2022-09-24T03:43:17.743Z,92.21
2022-09-24T03:44:21.476Z,92.32
2022-09-24T03:45:26.034Z,92.26
2022-09-24T03:46:30.611Z,92.21
2022-09-24T03:47:34.802Z,92.32
2022-09-24T03:48:41.177Z,92.24
2022-09-24T03:49:44.877Z,92.31
2022-09-24T03:50:50.550Z,92.13
2022-09-24T03:51:54.490Z,92.27
2022-09-24T03:52:58.618Z,92.35
2022-09-24T03:54:02.443Z,92.45
2022-09-24T03:55:07.653Z,92.15
2022-09-24T03:56:12.927Z,92.19
2022-09-24T03:57:16.905Z,92.09
2022-09-24T03:58:21.048Z,92.28
2022-09-24T03:59:25.054Z,92.01
2022-09-24T04:00:28.865Z,92.25
2022-09-24T04:01:33.554Z,91.93
2022-09-24T04:02:37.644Z,92.07
2022-09-24T04:03:41.762Z,92.36
2022-09-24T04:04:46.047Z,92.27
2022-09-24T04:05:52.773Z,92.27
2022-09-24T04:06:57.561Z,92.04
2022-09-24T04:08:02.502Z,91.98
2022-09-24T04:09:06.338Z,92.21
2022-09-24T04:10:10.562Z,92.12
2022-09-24T04:11:14.340Z,91.96
2022-09-24T04:12:18.847Z,91.94
2022-09-24T04:13:23.008Z,92.24
2022-09-24T04:14:26.922Z,92.24
2022-09-24T04:15:31.341Z,92.38
2022-09-24T04:16:35.089Z,92.30
2022-09-24T04:17:39.453Z,92.37
2022-09-24T04:18:43.338Z,92.48
2022-09-24T04:19:47.342Z,92.37
2022-09-24T04:20:51.233Z,92.51
2022-09-24T04:21:55.214Z,92.16
2022-09-24T04:23:00.210Z,92.34
2022-09-24T04:24:05.261Z,92.33
2022-09-24T04:25:14.607Z,92.15
2022-09-24T04:26:19.019Z,92.03
2022-09-24T04:27:22.790Z,92.35
2022-09-24T04:28:26.549Z,92.44
2022-09-24T04:29:30.503Z,92.38
2022-09-24T04:30:36.718Z,92.48
2022-09-24T04:31:40.878Z,92.54
2022-09-24T04:32:45.144Z,92.43
2022-09-24T04:33:48.889Z,92.33
2022-09-24T04:34:52.715Z,92.50
2022-09-24T04:35:56.535Z,92.05
2022-09-24T04:37:00.420Z,92.36
2022-09-24T04:38:06.996Z,91.96
2022-09-24T04:39:11.661Z,92.13
2022-09-24T04:40:17.146Z,92.26
2022-09-24T04:41:22.047Z,92.35
2022-09-24T04:42:26.390Z,92.00
2022-09-24T04:43:30.111Z,92.02
2022-09-24T04:44:33.770Z,92.27
2022-09-24T04:45:38.605Z,92.28
2022-09-24T04:46:43.209Z,91.92
2022-09-24T04:47:52.822Z,92.00
2022-09-24T04:48:57.764Z,92.06
2022-09-24T04:50:02.836Z,92.17
2022-09-24T04:51:08.890Z,91.99
2022-09-24T04:52:16.537Z,92.07
2022-09-24T04:53:20.592Z,92.10
2022-09-24T04:54:25.791Z,92.20
2022-09-24T04:55:29.727Z,92.11
2022-09-24T04:56:33.695Z,91.96
2022-09-24T04:57:37.692Z,92.16
2022-09-24T04:58:41.783Z,91.77
2022-09-24T04:59:45.600Z,91.96
2022-09-24T05:00:49.367Z,92.04
2022-09-24T05:01:55.322Z,91.90
2022-09-24T05:03:04.053Z,91.98
2022-09-24T05:04:08.248Z,91.58
2022-09-24T05:05:13.580Z,91.49
2022-09-24T05:06:17.263Z,91.56
2022-09-24T05:07:21.116Z,91.53
2022-09-24T05:08:25.123Z,91.55
2022-09-24T05:09:30.321Z,91.74
2022-09-24T05:10:34.711Z,91.75
2022-09-24T05:11:38.444Z,91.40
2022-09-24T05:12:42.239Z,91.49
2022-09-24T05:13:57.996Z,91.32
2022-09-24T05:15:02.426Z,91.25
2022-09-24T05:16:06.695Z,91.31
2022-09-24T05:17:10.817Z,91.18
2022-09-24T05:18:14.627Z,91.11
2022-09-24T05:19:19.067Z,91.14
2022-09-24T05:20:23.782Z,90.91
2022-09-24T05:21:27.772Z,90.77
2022-09-24T05:22:31.990Z,90.68
2022-09-24T05:23:36.399Z,90.71
2022-09-24T05:24:40.774Z,90.82
2022-09-24T05:26:04.189Z,90.70
2022-09-24T05:27:10.168Z,90.27
2022-09-24T05:28:14.337Z,90.40
2022-09-24T05:29:19.729Z,90.54
2022-09-24T05:30:26.538Z,90.64
2022-09-24T05:31:30.889Z,90.66
2022-09-24T05:32:37.177Z,90.64
2022-09-24T05:33:40.853Z,90.32
2022-09-24T05:34:46.079Z,90.45
2022-09-24T05:35:58.625Z,90.44
2022-09-24T05:37:05.255Z,90.14
2022-09-24T05:38:09.127Z,90.25
2022-09-24T05:39:14.357Z,89.95
2022-09-24T05:40:37.506Z,89.72
2022-09-24T05:41:41.874Z,89.57
2022-09-24T05:42:46.944Z,89.97
2022-09-24T05:43:51.216Z,89.66
2022-09-24T05:44:55.440Z,89.79
2022-09-24T05:45:59.353Z,89.61
2022-09-24T05:47:03.800Z,89.49
2022-09-24T05:48:08.739Z,89.09
2022-09-24T05:49:12.640Z,89.17
2022-09-24T05:50:16.592Z,88.97
2022-09-24T05:51:20.442Z,88.93
2022-09-24T05:52:24.922Z,88.63
2022-09-24T05:53:30.119Z,88.59
2022-09-24T05:54:33.927Z,88.35
2022-09-24T05:55:37.870Z,88.32
2022-09-24T05:56:41.727Z,87.79
2022-09-24T05:57:45.794Z,87.49
2022-09-24T05:58:50.914Z,87.32
2022-09-24T05:59:54.892Z,86.96
2022-09-24T06:01:03.695Z,86.62
2022-09-24T06:02:09.309Z,86.04
2022-09-24T06:03:17.165Z,85.88
2022-09-24T06:04:23.598Z,85.17
2022-09-24T06:05:29.229Z,84.95
2022-09-24T06:06:33.501Z,84.49
2022-09-24T06:07:37.890Z,83.95
2022-09-24T06:08:41.938Z,83.89
2022-09-24T06:09:48.082Z,83.39
2022-09-24T06:10:52.191Z,83.07
2022-09-24T06:11:57.163Z,82.61
2022-09-24T06:13:01.680Z,82.44
2022-09-24T06:14:07.111Z,81.93
2022-09-24T06:15:12.767Z,81.73
2022-09-24T06:16:16.582Z,81.14
2022-09-24T06:17:24.075Z,81.01
2022-09-24T06:18:27.904Z,80.54
2022-09-24T06:19:31.941Z,80.31
2022-09-24T06:20:36.292Z,80.11
2022-09-24T06:21:41.162Z,79.83
2022-09-24T06:22:45.688Z,79.47
2022-09-24T06:23:49.802Z,79.29
2022-09-24T06:24:54.536Z,78.91
2022-09-24T06:25:59.278Z,78.62
2022-09-24T06:27:04.440Z,78.07
2022-09-24T06:28:09.066Z,77.70
2022-09-24T06:29:13.352Z,77.50
2022-09-24T06:30:17.705Z,77.82
2022-09-24T06:31:22.485Z,77.82
2022-09-24T06:32:26.883Z,77.57
2022-09-24T06:33:31.173Z,77.24
2022-09-24T06:34:35.720Z,76.81
2022-09-24T06:35:44.006Z,76.26
2022-09-24T06:36:48.426Z,76.10
2022-09-24T06:37:54.083Z,75.55
2022-09-24T06:38:59.303Z,75.05
2022-09-24T06:40:03.470Z,74.47
2022-09-24T06:41:08.897Z,74.45
2022-09-24T06:42:14.541Z,73.80
2022-09-24T06:43:19.373Z,72.89
2022-09-24T06:44:23.685Z,73.02
2022-09-24T06:45:28.466Z,72.71
2022-09-24T06:46:32.459Z,72.47
2022-09-24T06:47:36.821Z,72.24
2022-09-24T06:48:40.612Z,71.90
2022-09-24T06:49:44.669Z,71.64
2022-09-24T06:50:49.206Z,71.50
2022-09-24T06:51:56.191Z,71.30
2022-09-24T06:53:00.414Z,71.15
2022-09-24T06:56:06.198Z,70.70
2022-09-24T06:57:10.145Z,70.71
2022-09-24T06:58:18.348Z,70.44
2022-09-24T06:59:22.288Z,70.06
2022-09-24T07:00:26.131Z,69.73
2022-09-24T07:01:30.538Z,69.42
2022-09-24T07:02:34.793Z,69.13
2022-09-24T07:03:39.576Z,69.02
2022-09-24T07:04:43.354Z,68.15
2022-09-24T07:05:47.161Z,68.36
2022-09-24T07:07:29.002Z,68.10
2022-09-24T07:08:34.101Z,67.78
2022-09-24T07:09:40.956Z,67.16
2022-09-24T07:10:48.489Z,67.09
2022-09-24T07:11:52.989Z,66.49
2022-09-24T07:12:57.501Z,66.32
2022-09-24T07:14:02.219Z,65.30
2022-09-24T07:15:07.074Z,64.97
2022-09-24T07:16:10.840Z,64.27
2022-09-24T07:17:14.899Z,63.13
2022-09-24T07:18:20.539Z,62.01
2022-09-24T07:19:25.403Z,61.15
2022-09-24T07:20:29.900Z,60.14
2022-09-24T07:21:35.538Z,59.07
2022-09-24T07:22:43.789Z,57.37
2022-09-24T07:23:48.178Z,56.35
2022-09-24T07:24:52.552Z,55.25
2022-09-24T07:25:57.980Z,53.22
2022-09-24T07:27:05.343Z,51.97
2022-09-24T07:28:13.282Z,50.20
2022-09-24T07:29:17.792Z,48.76
2022-09-24T07:30:22.287Z,47.89
2022-09-24T07:31:27.361Z,46.61
2022-09-24T07:32:31.116Z,45.78
2022-09-24T07:33:35.020Z,44.45
2022-09-24T07:34:40.580Z,43.83
2022-09-24T07:35:44.532Z,42.48
2022-09-24T07:36:49.296Z,41.38
2022-09-24T07:38:08.919Z,40.67
2022-09-24T07:39:12.751Z,39.77
2022-09-24T07:40:16.666Z,39.45
2022-09-24T07:41:20.676Z,38.87
2022-09-24T07:42:27.125Z,38.63
2022-09-24T07:43:33.646Z,38.02
2022-09-24T07:44:38.426Z,37.87
2022-09-24T07:45:43.291Z,37.59
2022-09-24T07:46:53.638Z,37.82
2022-09-24T07:48:02.644Z,37.58
2022-09-24T07:49:06.582Z,37.12
2022-09-24T07:50:12.355Z,37.16
2022-09-24T07:51:16.595Z,36.80
2022-09-24T07:52:20.676Z,36.97
2022-09-24T07:53:24.596Z,37.67
2022-09-24T07:54:30.360Z,37.63
2022-09-24T07:55:41.347Z,37.62
2022-09-24T07:56:45.204Z,38.21
2022-09-24T07:57:53.296Z,38.37
2022-09-24T07:58:57.037Z,38.83
2022-09-24T08:00:00.748Z,39.39
2022-09-24T08:01:04.652Z,38.76
2022-09-24T08:02:17.551Z,38.84
2022-09-24T08:03:22.546Z,39.10
2022-09-24T08:04:26.896Z,38.63
2022-09-24T08:05:30.894Z,38.50
2022-09-24T08:06:41.382Z,38.60
2022-09-24T08:07:56.153Z,38.42
2022-09-24T08:09:00.508Z,38.57
2022-09-24T08:10:05.042Z,38.45
2022-09-24T08:11:13.520Z,38.55
2022-09-24T08:12:21.570Z,38.38
2022-09-24T08:13:28.124Z,38.62
2022-09-24T08:14:31.950Z,38.12
2022-09-24T08:15:35.893Z,38.03
2022-09-24T08:16:40.790Z,38.37
2022-09-24T08:17:44.779Z,38.51
2022-09-24T08:18:48.776Z,38.73
2022-09-24T08:19:57.155Z,38.92
2022-09-24T08:21:11.307Z,39.51
2022-09-24T08:22:15.457Z,39.34
2022-09-24T08:23:20.950Z,38.99
2022-09-24T08:24:24.611Z,38.93
2022-09-24T08:25:28.595Z,38.48
2022-09-24T08:26:33.702Z,38.58
2022-09-24T08:27:37.887Z,37.86
2022-09-24T08:28:43.114Z,37.78
2022-09-24T08:29:47.461Z,37.77
2022-09-24T08:30:51.351Z,37.99
2022-09-24T08:31:55.473Z,38.37
2022-09-24T08:32:59.820Z,38.13
2022-09-24T08:34:03.585Z,38.36
2022-09-24T08:35:08.787Z,38.30
2022-09-24T08:36:13.247Z,38.90
2022-09-24T08:37:17.138Z,38.88
2022-09-24T08:38:21.260Z,38.64
2022-09-24T08:39:25.439Z,39.10
2022-09-24T08:40:34.865Z,39.89
2022-09-24T08:41:57.372Z,40.23
2022-09-24T08:43:23.078Z,40.92
2022-09-24T08:45:00.056Z,41.61
2022-09-24T08:46:59.149Z,42.36
2022-09-24T08:48:22.977Z,42.76
2022-09-24T08:49:40.478Z,43.07
2022-09-24T08:51:01.549Z,43.08
2022-09-24T08:52:32.879Z,42.85
2022-09-24T08:53:59.052Z,42.49
2022-09-24T08:55:21.740Z,41.86
2022-09-24T08:56:37.553Z,41.02
2022-09-24T08:58:21.151Z,40.76
2022-09-24T08:59:38.117Z,40.42
2022-09-24T09:01:31.906Z,40.29
2022-09-24T09:02:54.829Z,40.06
2022-09-24T09:04:24.094Z,39.95
2022-09-24T09:05:55.426Z,39.58
2022-09-24T09:07:15.004Z,39.05
2022-09-24T09:09:06.336Z,38.03
2022-09-24T09:10:28.031Z,37.39
2022-09-24T09:11:37.061Z,36.99
2022-09-24T09:13:02.794Z,36.08
2022-09-24T09:15:07.107Z,35.40
2022-09-24T09:16:16.341Z,35.39
2022-09-24T09:17:35.067Z,35.46
2022-09-24T09:18:46.056Z,35.59
2022-09-24T09:19:57.654Z,36.03
2022-09-24T09:21:35.739Z,36.21
2022-09-24T09:22:49.617Z,37.11
2022-09-24T09:23:58.210Z,37.16
2022-09-24T09:25:28.592Z,37.86
2022-09-24T09:26:32.411Z,37.98
2022-09-24T09:27:36.849Z,39.01
2022-09-24T09:28:41.027Z,39.02
2022-09-24T09:29:59.949Z,39.63
2022-09-24T09:31:19.506Z,40.10
2022-09-24T09:32:55.583Z,40.82
2022-09-24T09:34:05.947Z,41.29
2022-09-24T09:35:31.898Z,41.80
2022-09-24T09:36:53.567Z,41.85
2022-09-24T09:38:12.388Z,42.22
2022-09-24T09:40:10.409Z,42.88
2022-09-24T09:41:23.434Z,43.16
2022-09-24T09:42:34.444Z,43.44
2022-09-24T09:43:38.621Z,43.70
2022-09-24T09:44:45.081Z,43.71
2022-09-24T09:46:39.508Z,44.04
2022-09-24T09:47:56.388Z,44.05
2022-09-24T09:49:07.775Z,44.00
2022-09-24T09:50:39.280Z,44.04
2022-09-24T09:51:48.822Z,44.26
2022-09-24T09:52:53.012Z,44.33
2022-09-24T09:54:03.011Z,44.49
2022-09-24T09:55:08.066Z,44.66
2022-09-24T09:56:13.382Z,44.96
2022-09-24T09:57:25.201Z,45.12
2022-09-24T09:58:32.883Z,45.49
2022-09-24T09:59:36.643Z,45.47
2022-09-24T10:00:40.725Z,45.54
2022-09-24T10:01:56.043Z,45.61
2022-09-24T10:03:00.329Z,45.52
2022-09-24T10:04:05.878Z,45.65
2022-09-24T10:05:27.536Z,45.77
2022-09-24T10:06:35.359Z,46.13
2022-09-24T10:07:46.519Z,46.35
2022-09-24T10:08:50.508Z,46.47
2022-09-24T10:10:24.568Z,46.45
2022-09-24T10:11:28.539Z,46.44
2022-09-24T10:12:32.618Z,46.43
2022-09-24T10:13:36.578Z,47.08
2022-09-24T10:14:40.387Z,47.21
2022-09-24T10:15:59.519Z,47.23
2022-09-24T10:17:06.061Z,47.07
2022-09-24T10:18:15.766Z,47.27
2022-09-24T10:19:29.042Z,47.04
2022-09-24T10:20:34.743Z,47.21
2022-09-24T10:21:38.538Z,47.05
2022-09-24T10:22:53.808Z,47.07
2022-09-24T10:24:09.369Z,47.50
2022-09-24T10:25:39.415Z,47.73
2022-09-24T10:26:46.024Z,48.02
2022-09-24T10:27:49.883Z,48.22
2022-09-24T10:29:12.075Z,48.36
2022-09-24T10:30:36.081Z,48.55
2022-09-24T10:31:42.610Z,48.75
2022-09-24T10:32:49.196Z,48.94
2022-09-24T10:33:57.980Z,49.04
2022-09-24T10:35:38.984Z,48.73
2022-09-24T10:37:04.243Z,48.45
2022-09-24T10:38:25.418Z,48.45
2022-09-24T10:39:31.397Z,48.70
2022-09-24T10:40:42.150Z,49.10
2022-09-24T10:41:57.447Z,49.31
2022-09-24T10:43:06.825Z,49.68
2022-09-24T10:44:12.348Z,50.10
2022-09-24T10:45:16.666Z,49.98
2022-09-24T10:46:40.560Z,50.25
2022-09-24T10:48:08.907Z,50.07
2022-09-24T10:50:23.581Z,49.97
2022-09-24T10:51:44.969Z,49.88
2022-09-24T10:53:03.841Z,49.93
2022-09-24T10:54:26.589Z,49.89
2022-09-24T10:55:45.805Z,49.92
2022-09-24T10:56:57.002Z,50.09
2022-09-24T10:58:44.946Z,50.10
2022-09-24T11:00:10.362Z,50.00
2022-09-24T11:01:27.241Z,50.05
2022-09-24T11:02:51.854Z,50.42
2022-09-24T11:04:18.473Z,50.50
2022-09-24T11:05:24.497Z,50.59
2022-09-24T11:07:08.495Z,50.57
2022-09-24T11:08:37.630Z,50.61
2022-09-24T11:10:10.271Z,50.53
2022-09-24T11:12:00.024Z,50.38
2022-09-24T11:13:23.985Z,50.14
2022-09-24T11:14:34.236Z,50.15
2022-09-24T11:16:17.220Z,50.23
2022-09-24T11:17:40.521Z,50.26
2022-09-24T11:19:23.690Z,50.07
2022-09-24T11:20:36.810Z,49.99
2022-09-24T11:22:00.804Z,49.73
2022-09-24T11:23:16.531Z,49.87
2022-09-24T11:24:38.709Z,49.86
2022-09-24T11:26:11.834Z,49.99
2022-09-24T11:27:55.832Z,50.05
2022-09-24T11:29:21.676Z,49.98
2022-09-24T11:31:05.601Z,50.07
2022-09-24T11:32:18.277Z,50.08
2022-09-24T11:33:53.739Z,50.18
2022-09-24T11:35:04.296Z,49.87
2022-09-24T11:36:29.929Z,49.95
2022-09-24T11:38:18.341Z,50.21
2022-09-24T11:41:41.336Z,49.69
2022-09-24T11:43:34.267Z,49.37
2022-09-24T11:45:00.683Z,48.38
2022-09-24T11:46:28.619Z,48.21
2022-09-24T11:48:09.026Z,47.92
2022-09-24T11:49:33.474Z,47.82
2022-09-24T11:51:17.496Z,47.88
2022-09-24T11:52:46.078Z,46.82
2022-09-24T11:54:12.072Z,47.22
2022-09-24T11:58:33.825Z,46.77
2022-09-24T11:59:48.716Z,47.28
2022-09-24T12:01:15.491Z,47.15
2022-09-24T12:11:10.379Z,46.17
2022-09-24T12:12:43.549Z,46.11
2022-09-24T12:13:59.980Z,45.96
2022-09-24T12:15:21.755Z,46.03
2022-09-24T12:16:34.754Z,45.88
2022-09-24T12:18:08.761Z,45.62
2022-09-24T12:21:28.274Z,45.08
2022-09-24T12:22:36.206Z,45.28
2022-09-24T12:23:45.127Z,45.56
2022-09-24T12:25:00.790Z,45.25
2022-09-24T12:26:06.854Z,45.38
2022-09-24T12:27:25.967Z,45.26
2022-09-24T12:29:04.508Z,45.24
2022-09-24T12:30:48.193Z,45.13
2022-09-24T12:32:42.177Z,44.94
2022-09-24T12:33:54.959Z,44.72
2022-09-24T12:35:14.794Z,44.39
2022-09-24T12:36:29.129Z,44.30
2022-09-24T12:37:41.032Z,44.27
2022-09-24T12:38:57.205Z,43.95
2022-09-24T12:40:19.083Z,43.53
2022-09-24T12:41:40.947Z,43.55
2022-09-24T12:42:54.298Z,43.93
2022-09-24T12:44:21.729Z,43.42
2022-09-24T12:45:27.486Z,43.37
2022-09-24T12:46:42.190Z,43.18
2022-09-24T12:48:06.448Z,42.98
2022-09-24T12:49:25.408Z,42.78
2022-09-24T12:50:38.728Z,42.89
2022-09-24T12:51:42.450Z,42.87
2022-09-24T12:52:46.780Z,43.11
2022-09-24T12:54:08.513Z,42.90
2022-09-24T12:55:31.939Z,43.30
2022-09-24T12:56:35.774Z,43.27
2022-09-24T12:57:58.584Z,43.50
2022-09-24T12:59:05.765Z,43.63
2022-09-24T13:00:47.368Z,43.71
2022-09-24T13:01:51.276Z,43.56
2022-09-24T13:02:55.321Z,43.61
2022-09-24T13:04:17.011Z,43.65
2022-09-24T13:05:23.461Z,43.88
2022-09-24T13:06:37.807Z,43.73
2022-09-24T13:07:41.747Z,44.02
2022-09-24T13:08:46.212Z,43.83
2022-09-24T13:09:49.960Z,43.84
2022-09-24T13:11:24.570Z,43.76
2022-09-24T13:12:33.519Z,43.88
2022-09-24T13:13:43.691Z,44.22
2022-09-24T13:15:02.773Z,44.28
2022-09-24T13:16:19.021Z,44.11
2022-09-24T13:17:24.090Z,44.14
2022-09-24T13:18:28.917Z,44.09
2022-09-24T13:19:47.319Z,43.39
2022-09-24T13:21:05.687Z,43.99
2022-09-24T13:22:30.482Z,43.97
2022-09-24T13:23:48.124Z,43.76
2022-09-24T13:25:07.954Z,43.99
2022-09-24T13:26:28.931Z,43.81
2022-09-24T13:27:32.412Z,44.02
2022-09-24T13:29:05.850Z,43.94
2022-09-24T13:30:12.696Z,44.23
2022-09-24T13:31:22.564Z,44.20
2022-09-24T13:32:27.421Z,44.07
2022-09-24T13:33:45.099Z,43.89
2022-09-24T13:34:51.741Z,44.23
2022-09-24T13:36:17.408Z,44.03
2022-09-24T13:37:41.657Z,43.61
2022-09-24T13:39:15.140Z,43.59
2022-09-24T13:40:27.268Z,43.36
2022-09-24T13:41:45.972Z,42.95
2022-09-24T13:43:41.242Z,42.73
2022-09-24T13:45:04.096Z,42.82
2022-09-24T13:46:21.302Z,42.72
2022-09-24T13:47:59.981Z,42.37
2022-09-24T13:49:52.503Z,42.43
2022-09-24T13:51:13.555Z,42.52
2022-09-24T13:52:49.366Z,42.47
2022-09-24T13:54:22.937Z,42.65
2022-09-24T13:55:54.221Z,42.64
2022-09-24T13:57:20.084Z,42.87
2022-09-24T13:58:39.109Z,42.80
2022-09-24T13:59:43.907Z,42.74
2022-09-24T14:00:49.642Z,42.77
2022-09-24T14:01:59.422Z,42.71
2022-09-24T14:03:26.392Z,42.58
2022-09-24T14:04:34.053Z,42.71
2022-09-24T14:05:38.368Z,42.95
2022-09-24T14:06:57.363Z,42.99
2022-09-24T14:08:21.572Z,43.28
2022-09-24T14:09:33.323Z,43.52
2022-09-24T14:10:37.684Z,43.65
2022-09-24T14:11:54.337Z,43.75
2022-09-24T14:13:24.708Z,43.86
2022-09-24T14:14:31.322Z,44.01
2022-09-24T14:15:36.418Z,43.88
2022-09-24T14:16:40.651Z,43.92
2022-09-24T14:17:58.594Z,44.10
2022-09-24T14:19:05.394Z,44.25
2022-09-24T14:20:16.213Z,44.17
2022-09-24T14:21:47.091Z,44.04
2022-09-24T14:22:53.438Z,44.23
2022-09-24T14:24:13.751Z,44.29
2022-09-24T14:25:32.527Z,44.15
2022-09-24T14:27:00.505Z,44.14
2022-09-24T14:28:08.113Z,43.97
2022-09-24T14:29:24.308Z,44.08
2022-09-24T14:30:32.477Z,44.28
2022-09-24T14:31:57.283Z,44.11
2022-09-24T14:33:16.903Z,44.46
2022-09-24T14:34:37.566Z,44.46
2022-09-24T14:35:49.587Z,44.64
2022-09-24T14:37:00.747Z,44.63
2022-09-24T14:38:29.767Z,44.77
2022-09-24T14:39:42.448Z,44.61
2022-09-24T14:40:55.315Z,44.61
2022-09-24T14:41:59.379Z,44.62
2022-09-24T14:43:03.632Z,44.56
2022-09-24T14:44:19.110Z,44.53
2022-09-24T14:45:34.520Z,44.48
2022-09-24T14:46:53.049Z,44.83
2022-09-24T14:48:06.972Z,44.74
2022-09-24T14:49:22.728Z,44.83
2022-09-24T14:50:41.256Z,45.12
2022-09-24T14:52:03.981Z,45.28
2022-09-24T14:53:36.217Z,45.62
2022-09-24T14:54:41.203Z,45.61
2022-09-24T14:55:46.945Z,45.71
2022-09-24T14:56:50.632Z,45.58
2022-09-24T14:57:57.740Z,45.85
2022-09-24T14:59:01.747Z,46.24
2022-09-24T15:00:37.948Z,46.47
2022-09-24T15:01:44.390Z,46.51
2022-09-24T15:03:12.563Z,46.97
2022-09-24T15:04:27.794Z,47.08
2022-09-24T15:05:32.468Z,47.14
2022-09-24T15:06:38.505Z,47.27
2022-09-24T15:07:46.216Z,47.41
2022-09-24T15:09:30.694Z,47.80
2022-09-24T15:10:35.764Z,47.71
2022-09-24T15:11:43.617Z,48.00
2022-09-24T15:12:50.372Z,48.14
2022-09-24T15:14:25.312Z,48.43
2022-09-24T15:15:32.347Z,48.52
2022-09-24T15:16:37.438Z,48.60
2022-09-24T15:17:41.756Z,48.76
2022-09-24T15:18:47.801Z,48.82
2022-09-24T15:19:55.039Z,48.60
2022-09-24T15:21:04.521Z,49.12
2022-09-24T15:22:10.050Z,49.18
2022-09-24T15:23:13.710Z,49.10
2022-09-24T15:24:18.476Z,49.24
2022-09-24T15:25:23.111Z,49.26
2022-09-24T15:26:33.472Z,49.37
2022-09-24T15:27:45.023Z,49.37
2022-09-24T15:28:49.166Z,49.51
2022-09-24T15:29:54.814Z,49.39
2022-09-24T15:30:58.763Z,49.71
2022-09-24T15:32:03.030Z,49.60
2022-09-24T15:33:17.734Z,49.73
2022-09-24T15:34:21.495Z,49.60
2022-09-24T15:35:25.427Z,49.77
2022-09-24T15:36:29.492Z,49.85
2022-09-24T15:37:33.245Z,49.81
2022-09-24T15:38:36.969Z,49.68